Wainwright, AK

11:18 AM AKST on January 18, 2017 (GMT -0900)
Wiley Post-Will Rogers Memorial | | Change Station

Elev 43 ft 71.29 °N, 156.77 °W | Updated 25 minutes ago

Partly Cloudy
Partly Cloudy
-15 °F
Feels Like -15 °F
N
0
Wind Variable Wind from North

Today
High -- | Low -- °F
--% Chance of Precip.
Yesterday
High -- | Low -- °F
Precip. -- in
Pressure 29.65 in
Visibility 7.0 miles
Clouds Scattered Clouds 1900 ft
Dew Point -21 °F
Humidity 75%
Rainfall 0.00 in
Snow Depth Not available.
1:05 PM 2:10 PM
Waning Gibbous, 60% visible
METAR PABR 181953Z 00000KT 7SM SCT019 M26/M29 A2964 RMK AO2 SLP039 MOON VISIBLE WEST T12611294
Pressure 29.65 in
Visibility 7.0 miles
Clouds Scattered Clouds 1900 ft
Dew Point -21 °F
Humidity 75%
Rainfall 0.00 in
Snow Depth Not available.
1:05 PM 2:10 PM
Waning Gibbous, 60% visible
METAR PABR 181953Z 00000KT 7SM SCT019 M26/M29 A2964 RMK AO2 SLP039 MOON VISIBLE WEST T12611294

Get Your Daily Forecast Email!

Thanks for signing up!

Be on the lookout for a verification email in your inbox.

You'll start receiving the daily forecast at 8 AM.

×

10-Day Weather Forecast

Almanac

Astronomy

Jan. 18, 2017 Rise Set
Actual Time
Civil Twilight
Nautical Twilight
Astronomical Twilight
Moon
Length of Visible Light
Length of Day
Tomorrow will be .
, % of the Moon is Illuminated

Today's Extremes

State Highs State Lows

Community

WunderPhotos

Upload Photos

1,962,540 photos uploaded!

WunderBlog® & News

Nearby

Air Quality

  Air Quality AQ Index Pollutant
Not available.

Snow Depth

Station Depth Elevation

Earthquake Activity

City Distance Mag. Time & Date
Minimum magnitude displayed is 2.5.

Coastal Water Temperatures

Place Temperature

Stations

Nearby Weather Stations

Station Location Temp. Windchill Dew Point Humidity Wind Precip. Elev Updated Type
                   

Watches & Warnings

There are currently no watches in effect.